METAR Data
IDs: Format: Raw Decoded Include TAF

Data at: 0410 UTC 26 May 2022

EDDH 260350Z AUTO 24011KT 9999 BKN017 BKN027 14/11 Q1013 TEMPO 25015G25KT